createdAt,value
2022-10-13T00:01:48.286Z,17.33
2022-10-13T00:04:14.912Z,19.60
2022-10-13T00:06:41.426Z,18.40
2022-10-13T00:09:07.957Z,19.40
2022-10-13T00:11:34.494Z,20.42
2022-10-13T00:14:03.201Z,25.63
2022-10-13T00:16:31.477Z,19.00
2022-10-13T00:18:58.222Z,21.67
2022-10-13T00:21:26.702Z,19.75
2022-10-13T00:23:54.142Z,25.00
2022-10-13T00:26:23.311Z,20.50
2022-10-13T00:28:52.729Z,21.88
2022-10-13T00:31:22.753Z,24.67
2022-10-13T00:33:49.684Z,23.60
2022-10-13T00:36:16.741Z,24.05
2022-10-13T00:38:43.727Z,23.40
2022-10-13T00:41:10.721Z,22.92
2022-10-13T00:44:06.525Z,21.75
2022-10-13T00:46:37.079Z,22.58
2022-10-13T00:49:09.430Z,24.88
2022-10-13T00:51:41.756Z,21.73
2022-10-13T00:54:10.831Z,23.90
2022-10-13T00:56:39.155Z,20.40
2022-10-13T00:59:22.716Z,28.52
2022-10-13T01:01:52.641Z,21.50
2022-10-13T01:04:22.578Z,21.73
2022-10-13T01:06:49.700Z,21.33
2022-10-13T01:09:16.294Z,19.13
2022-10-13T01:11:58.981Z,19.42
2022-10-13T01:14:49.617Z,20.92
2022-10-13T01:17:23.634Z,19.70
2022-10-13T01:20:15.778Z,20.75
2022-10-13T01:23:00.402Z,19.02
2022-10-13T01:25:48.624Z,18.23
2022-10-13T01:28:26.323Z,20.13
2022-10-13T01:31:07.125Z,19.05
2022-10-13T01:33:52.498Z,17.48
2022-10-13T01:36:35.543Z,18.92
2022-10-13T01:39:23.049Z,20.17
2022-10-13T01:41:54.028Z,19.42
2022-10-13T01:44:32.504Z,21.25
2022-10-13T01:47:01.142Z,21.23
2022-10-13T01:49:31.943Z,20.48
2022-10-13T01:52:03.630Z,17.60
2022-10-13T01:54:32.456Z,17.70
2022-10-13T01:56:59.207Z,19.08
2022-10-13T01:59:29.146Z,21.08
2022-10-13T02:02:00.983Z,18.58
2022-10-13T02:04:53.849Z,19.33
2022-10-13T02:07:38.743Z,19.52
2022-10-13T02:10:08.329Z,21.35
2022-10-13T02:12:56.524Z,26.35
2022-10-13T02:15:30.479Z,18.85
2022-10-13T02:17:58.070Z,21.38
2022-10-13T02:20:24.638Z,23.33
2022-10-13T02:22:57.306Z,22.38
2022-10-13T02:25:24.838Z,23.05
2022-10-13T02:27:52.756Z,22.48
2022-10-13T02:30:24.974Z,20.23
2022-10-13T02:32:51.822Z,20.98
2022-10-13T02:35:18.659Z,23.55
2022-10-13T02:37:45.207Z,20.65
2022-10-13T02:40:12.396Z,20.05
2022-10-13T02:42:39.065Z,23.20
2022-10-13T02:45:06.271Z,20.67
2022-10-13T02:47:32.782Z,21.25
2022-10-13T02:49:59.320Z,20.58
2022-10-13T02:52:25.817Z,20.15
2022-10-13T02:54:52.490Z,20.42
2022-10-13T02:57:19.102Z,17.52
2022-10-13T02:59:45.794Z,17.98
2022-10-13T03:02:12.382Z,18.77
2022-10-13T03:04:38.946Z,18.35
2022-10-13T03:07:05.450Z,17.40
2022-10-13T03:09:32.127Z,19.42
2022-10-13T03:11:58.815Z,16.98
2022-10-13T03:14:25.374Z,20.25
2022-10-13T03:16:52.007Z,17.48
2022-10-13T03:19:18.566Z,21.10
2022-10-13T03:21:45.281Z,20.23
2022-10-13T03:24:11.863Z,19.27
2022-10-13T03:26:38.350Z,20.05
2022-10-13T03:29:04.994Z,20.65
2022-10-13T03:31:31.704Z,33.47
2022-10-13T03:33:58.241Z,31.77
2022-10-13T03:36:24.896Z,41.40
2022-10-13T03:38:51.406Z,42.47
2022-10-13T03:41:19.227Z,41.38
2022-10-13T03:43:45.767Z,43.13
2022-10-13T03:46:14.570Z,41.65
2022-10-13T03:48:41.182Z,39.03
2022-10-13T03:51:19.175Z,38.05
2022-10-13T03:53:47.137Z,42.88
2022-10-13T03:56:22.654Z,44.60
2022-10-13T03:58:54.484Z,39.50
2022-10-13T04:01:26.898Z,41.15
2022-10-13T04:03:55.422Z,41.85
2022-10-13T04:06:22.927Z,44.45
2022-10-13T04:08:50.181Z,46.05
2022-10-13T04:11:17.470Z,37.50
2022-10-13T04:13:44.671Z,41.45
2022-10-13T04:16:23.838Z,34.17
2022-10-13T04:18:53.102Z,49.42
2022-10-13T04:21:20.171Z,43.42
2022-10-13T04:23:46.741Z,40.22
2022-10-13T04:26:18.670Z,37.35
2022-10-13T04:28:46.935Z,37.75
2022-10-13T04:31:13.802Z,34.85
2022-10-13T04:33:40.793Z,36.47
2022-10-13T04:36:09.236Z,35.25
2022-10-13T04:38:35.836Z,35.25
2022-10-13T04:41:04.361Z,31.48
2022-10-13T04:43:31.532Z,36.05
2022-10-13T04:46:12.967Z,34.60
2022-10-13T04:48:39.718Z,35.20
2022-10-13T04:51:12.746Z,40.33
2022-10-13T04:53:40.309Z,38.75
2022-10-13T04:56:09.846Z,35.20
2022-10-13T04:58:37.489Z,33.53
2022-10-13T05:01:07.514Z,36.70
2022-10-13T05:03:34.718Z,35.97
2022-10-13T05:06:01.553Z,34.67
2022-10-13T05:08:28.203Z,39.85
2022-10-13T05:11:00.902Z,30.90
2022-10-13T05:13:29.289Z,35.58
2022-10-13T05:15:56.345Z,36.90
2022-10-13T05:18:23.262Z,36.22
2022-10-13T05:20:50.078Z,41.80
2022-10-13T05:23:16.849Z,38.35
2022-10-13T05:25:43.418Z,35.80
2022-10-13T05:28:09.959Z,36.60
2022-10-13T05:30:36.491Z,34.67
2022-10-13T05:33:03.058Z,35.38
2022-10-13T05:35:29.626Z,30.02
2022-10-13T05:37:56.184Z,29.67
2022-10-13T05:40:22.797Z,33.97
2022-10-13T05:42:50.696Z,29.80
2022-10-13T05:45:19.269Z,34.83
2022-10-13T05:47:45.877Z,33.85
2022-10-13T05:50:12.565Z,34.20
2022-10-13T05:52:39.275Z,31.67
2022-10-13T05:55:10.077Z,37.10
2022-10-13T05:57:40.976Z,38.08
2022-10-13T06:00:15.642Z,38.63
2022-10-13T06:03:05.516Z,39.33
2022-10-13T06:05:32.733Z,47.70
2022-10-13T06:07:59.993Z,44.28
2022-10-13T06:10:27.025Z,45.03
2022-10-13T06:12:53.688Z,46.30
2022-10-13T06:15:23.299Z,45.72
2022-10-13T06:17:52.364Z,46.15
2022-10-13T06:20:19.111Z,45.92
2022-10-13T06:22:46.314Z,40.97
2022-10-13T06:25:12.809Z,50.58
2022-10-13T06:27:39.496Z,44.30
2022-10-13T06:30:06.583Z,51.60
2022-10-13T06:32:33.244Z,46.42
2022-10-13T06:34:59.744Z,52.10
2022-10-13T06:37:27.649Z,44.60
2022-10-13T06:39:54.434Z,51.53
2022-10-13T06:42:21.361Z,51.03
2022-10-13T06:44:48.251Z,43.25
2022-10-13T06:47:14.818Z,47.38
2022-10-13T06:49:41.322Z,49.58
2022-10-13T06:52:08.745Z,50.47
2022-10-13T06:54:35.323Z,57.50
2022-10-13T06:57:01.961Z,44.30
2022-10-13T06:59:28.478Z,44.38
2022-10-13T07:01:55.061Z,45.03
2022-10-13T07:04:22.847Z,46.53
2022-10-13T07:06:50.767Z,49.33
2022-10-13T07:09:17.802Z,50.85
2022-10-13T07:11:45.510Z,56.75
2022-10-13T07:14:13.352Z,42.42
2022-10-13T07:16:40.854Z,36.50
2022-10-13T07:19:07.710Z,51.78
2022-10-13T07:21:34.250Z,36.65
2022-10-13T07:24:02.650Z,41.22
2022-10-13T07:26:29.449Z,39.33
2022-10-13T07:28:56.039Z,46.00
2022-10-13T07:31:22.648Z,54.85
2022-10-13T07:33:50.525Z,62.92
2022-10-13T07:36:18.132Z,51.83
2022-10-13T07:38:45.314Z,53.72
2022-10-13T07:41:12.590Z,61.95
2022-10-13T07:43:39.441Z,55.72
2022-10-13T07:46:07.788Z,48.63
2022-10-13T07:48:35.693Z,49.72
2022-10-13T07:51:11.919Z,52.25
2022-10-13T07:53:40.070Z,50.00
2022-10-13T07:56:10.358Z,57.75
2022-10-13T07:58:38.623Z,59.95
2022-10-13T08:01:05.281Z,56.03
2022-10-13T08:03:32.653Z,56.38
2022-10-13T08:06:01.236Z,52.22
2022-10-13T08:08:28.254Z,47.85
2022-10-13T08:10:56.126Z,51.03
2022-10-13T08:13:22.635Z,55.00
2022-10-13T08:15:49.207Z,51.00
2022-10-13T08:18:15.851Z,52.30
2022-10-13T08:20:44.093Z,46.33
2022-10-13T08:23:12.163Z,51.20
2022-10-13T08:25:43.333Z,48.03
2022-10-13T08:28:17.497Z,50.97
2022-10-13T08:30:44.220Z,47.88
2022-10-13T08:33:10.830Z,43.83
2022-10-13T08:35:37.978Z,40.53
2022-10-13T08:38:04.681Z,41.17
2022-10-13T08:40:31.674Z,44.22
2022-10-13T08:43:00.535Z,37.75
2022-10-13T08:45:45.359Z,39.38
2022-10-13T08:48:17.798Z,33.03
2022-10-13T08:50:47.578Z,38.83
2022-10-13T08:53:38.912Z,39.78
2022-10-13T08:56:08.625Z,39.30
2022-10-13T08:58:38.650Z,36.38
2022-10-13T09:01:15.282Z,38.08
2022-10-13T09:04:11.850Z,35.10
2022-10-13T09:06:44.176Z,40.10
2022-10-13T09:09:13.405Z,36.00
2022-10-13T09:11:45.819Z,36.15
2022-10-13T09:14:24.386Z,32.42
2022-10-13T09:16:52.506Z,33.20
2022-10-13T09:19:30.102Z,34.50
2022-10-13T09:22:12.874Z,32.72
2022-10-13T09:24:39.738Z,39.55
2022-10-13T09:27:14.027Z,37.80
2022-10-13T09:29:41.506Z,38.43
2022-10-13T09:32:16.144Z,40.20
2022-10-13T09:34:42.841Z,43.00
2022-10-13T09:37:28.052Z,38.70
2022-10-13T09:40:12.096Z,40.92
2022-10-13T09:42:39.122Z,37.58
2022-10-13T09:45:18.257Z,41.95
2022-10-13T09:47:54.718Z,43.92
2022-10-13T09:50:28.845Z,37.95
2022-10-13T09:53:20.300Z,41.28
2022-10-13T09:55:48.986Z,43.17
2022-10-13T09:58:22.404Z,44.30
2022-10-13T10:00:51.823Z,42.65
2022-10-13T10:03:41.594Z,40.10
2022-10-13T10:06:12.295Z,40.72
2022-10-13T10:09:02.714Z,40.33
2022-10-13T10:11:37.282Z,40.50
2022-10-13T10:14:25.257Z,40.03
2022-10-13T10:17:46.064Z,48.50
2022-10-13T10:20:18.299Z,44.40
2022-10-13T10:23:06.366Z,44.42
2022-10-13T10:25:44.603Z,40.92
2022-10-13T10:28:21.766Z,39.92
2022-10-13T10:31:30.018Z,42.78
2022-10-13T10:34:34.791Z,38.78
2022-10-13T10:37:25.114Z,43.47
2022-10-13T10:40:04.205Z,44.90
2022-10-13T10:42:54.011Z,38.80
2022-10-13T10:45:29.374Z,42.03
2022-10-13T10:48:11.582Z,48.30
2022-10-13T10:50:38.810Z,43.75
2022-10-13T10:53:25.828Z,37.55
2022-10-13T10:56:13.604Z,37.25
2022-10-13T10:59:21.913Z,38.30
2022-10-13T11:02:06.598Z,41.90
2022-10-13T11:04:41.590Z,40.55
2022-10-13T11:07:34.384Z,36.22
2022-10-13T11:10:03.884Z,37.55
2022-10-13T11:12:54.381Z,41.00
2022-10-13T11:15:27.548Z,35.92
2022-10-13T11:17:54.398Z,32.85
2022-10-13T11:20:20.861Z,31.38
2022-10-13T11:22:59.350Z,39.03
2022-10-13T11:25:39.876Z,33.65
2022-10-13T11:28:21.801Z,34.92
2022-10-13T11:30:57.290Z,34.95
2022-10-13T11:33:33.220Z,32.13
2022-10-13T11:36:37.772Z,29.20
2022-10-13T11:39:32.359Z,31.77
2022-10-13T11:42:07.978Z,28.13
2022-10-13T11:44:39.112Z,27.13
2022-10-13T11:47:27.275Z,27.20
2022-10-13T11:50:07.704Z,26.83
2022-10-13T11:52:37.611Z,27.10
2022-10-13T11:55:17.539Z,22.40
2022-10-13T11:57:44.131Z,28.77
2022-10-13T12:00:16.591Z,23.52
2022-10-13T12:02:52.014Z,23.85
2022-10-13T12:05:25.837Z,23.70
2022-10-13T12:07:55.330Z,22.75
2022-10-13T12:10:32.630Z,26.15
2022-10-13T12:13:00.170Z,25.35
2022-10-13T12:15:44.280Z,21.63
2022-10-13T12:18:23.598Z,23.70
2022-10-13T12:20:58.657Z,21.75
2022-10-13T12:23:26.666Z,23.15
2022-10-13T12:25:58.030Z,19.70
2022-10-13T12:28:30.838Z,23.25
2022-10-13T12:30:59.892Z,22.40
2022-10-13T12:33:31.005Z,22.00
2022-10-13T12:36:17.538Z,19.52
2022-10-13T12:38:49.346Z,17.30
2022-10-13T12:41:22.510Z,19.65
2022-10-13T12:43:50.871Z,19.17
2022-10-13T12:46:36.497Z,19.35
2022-10-13T12:51:35.888Z,18.95
2022-10-13T12:54:16.813Z,17.05
2022-10-13T12:56:43.458Z,18.20
2022-10-13T12:59:18.019Z,17.38
2022-10-13T13:01:45.826Z,15.50
2022-10-13T13:04:21.292Z,18.60
2022-10-13T13:06:57.086Z,16.70
2022-10-13T13:09:25.382Z,20.27
2022-10-13T13:12:12.969Z,19.58
2022-10-13T13:14:42.689Z,14.90
2022-10-13T13:20:33.810Z,15.18
2022-10-13T13:23:00.635Z,16.08
2022-10-13T13:25:27.471Z,15.52
2022-10-13T13:27:54.280Z,15.52
2022-10-13T13:30:23.033Z,17.75
2022-10-13T13:32:49.993Z,16.98
2022-10-13T13:35:16.826Z,15.60
2022-10-13T13:37:48.758Z,15.65
2022-10-13T13:40:17.898Z,15.90
2022-10-13T13:42:44.511Z,16.88
2022-10-13T13:45:20.349Z,17.90
2022-10-13T13:47:47.399Z,17.67
2022-10-13T13:50:18.759Z,16.02
2022-10-13T13:52:45.360Z,14.38
2022-10-13T13:55:12.064Z,15.18
2022-10-13T13:57:38.565Z,12.52
2022-10-13T14:00:06.017Z,14.23
2022-10-13T14:02:32.513Z,14.98
2022-10-13T14:04:59.413Z,16.02
2022-10-13T14:07:26.503Z,16.27
2022-10-13T14:09:53.769Z,18.02
2022-10-13T14:12:22.474Z,15.32
2022-10-13T14:14:49.166Z,14.45
2022-10-13T14:17:15.725Z,18.42
2022-10-13T14:19:42.422Z,16.77
2022-10-13T14:22:09.665Z,17.40
2022-10-13T14:24:36.253Z,17.27
2022-10-13T14:27:02.848Z,20.38
2022-10-13T14:29:29.495Z,16.55
2022-10-13T14:31:56.110Z,18.45
2022-10-13T14:34:22.747Z,18.15
2022-10-13T14:36:49.337Z,17.75
2022-10-13T14:39:15.942Z,17.30
2022-10-13T14:41:42.473Z,19.83
2022-10-13T14:44:13.663Z,16.33
2022-10-13T14:46:41.320Z,20.08
2022-10-13T14:49:09.548Z,18.25
2022-10-13T14:51:36.146Z,16.08
2022-10-13T14:54:04.369Z,22.10
2022-10-13T14:56:31.380Z,21.20
2022-10-13T14:59:00.238Z,19.38
2022-10-13T15:01:27.988Z,16.95
2022-10-13T15:03:54.890Z,17.75
2022-10-13T15:06:23.908Z,20.70
2022-10-13T15:08:50.917Z,18.55
2022-10-13T15:11:19.490Z,20.95
2022-10-13T15:13:46.186Z,18.50
2022-10-13T15:16:21.004Z,22.40
2022-10-13T15:18:48.165Z,19.95
2022-10-13T15:21:15.776Z,18.90
2022-10-13T15:23:42.706Z,19.23
2022-10-13T15:26:11.378Z,22.10
2022-10-13T15:28:40.504Z,17.23
2022-10-13T15:31:07.231Z,20.30
2022-10-13T15:33:34.580Z,22.38
2022-10-13T15:36:01.369Z,19.35
2022-10-13T15:38:28.045Z,19.30
2022-10-13T15:41:00.422Z,23.17
2022-10-13T15:43:27.193Z,21.40
2022-10-13T15:45:56.400Z,20.63
2022-10-13T15:48:23.214Z,22.98
2022-10-13T15:50:49.870Z,21.63
2022-10-13T15:53:16.741Z,23.00
2022-10-13T15:55:43.447Z,19.30
2022-10-13T15:58:13.734Z,25.65
2022-10-13T16:00:41.265Z,24.13
2022-10-13T16:03:12.820Z,28.25
2022-10-13T16:05:41.470Z,23.63
2022-10-13T16:08:08.022Z,21.50
2022-10-13T16:10:34.542Z,22.35
2022-10-13T16:13:01.147Z,23.75
2022-10-13T16:15:29.027Z,25.50
2022-10-13T16:17:55.549Z,20.88
2022-10-13T16:20:22.165Z,27.05
2022-10-13T16:22:48.710Z,23.48
2022-10-13T16:25:15.446Z,25.75
2022-10-13T16:27:44.528Z,26.08
2022-10-13T16:30:11.694Z,25.80
2022-10-13T16:32:39.672Z,24.25
2022-10-13T16:35:07.188Z,24.35
2022-10-13T16:37:34.059Z,29.45
2022-10-13T16:40:00.678Z,21.40
2022-10-13T16:42:27.309Z,26.10
2022-10-13T16:44:53.930Z,30.17
2022-10-13T16:47:20.881Z,21.60
2022-10-13T16:49:47.754Z,24.52
2022-10-13T16:52:14.302Z,24.98
2022-10-13T16:54:40.799Z,28.77
2022-10-13T16:57:07.377Z,31.05
2022-10-13T16:59:33.966Z,31.35
2022-10-13T17:02:01.005Z,29.30
2022-10-13T17:04:28.758Z,27.13
2022-10-13T17:06:55.278Z,31.90
2022-10-13T17:09:21.863Z,31.73
2022-10-13T17:11:48.500Z,27.50
2022-10-13T17:14:15.118Z,27.83
2022-10-13T17:16:41.732Z,30.05
2022-10-13T17:19:09.096Z,24.30
2022-10-13T17:21:35.778Z,34.55
2022-10-13T17:24:02.406Z,29.15
2022-10-13T17:26:28.949Z,33.97
2022-10-13T17:28:55.550Z,31.58
2022-10-13T17:31:23.228Z,30.77
2022-10-13T17:33:50.672Z,29.20
2022-10-13T17:36:26.385Z,29.13
2022-10-13T17:38:55.464Z,33.58
2022-10-13T17:41:23.060Z,32.13
2022-10-13T17:43:51.724Z,34.13
2022-10-13T17:46:42.605Z,38.45
2022-10-13T17:49:12.373Z,39.22
2022-10-13T17:51:43.667Z,41.35
2022-10-13T17:54:15.320Z,48.47
2022-10-13T17:56:43.227Z,48.85
2022-10-13T17:59:10.112Z,40.55
2022-10-13T18:01:36.775Z,45.90
2022-10-13T18:04:11.635Z,40.70
2022-10-13T18:06:40.619Z,43.10
2022-10-13T18:09:09.770Z,45.08
2022-10-13T18:11:36.839Z,43.13
2022-10-13T18:14:03.832Z,52.53
2022-10-13T18:16:30.896Z,42.03
2022-10-13T18:18:57.510Z,36.50
2022-10-13T18:21:27.255Z,37.85
2022-10-13T18:23:55.746Z,41.63
2022-10-13T18:26:23.610Z,36.45
2022-10-13T18:28:51.687Z,45.22
2022-10-13T18:31:22.754Z,48.78
2022-10-13T18:33:49.594Z,38.53
2022-10-13T18:36:23.311Z,40.05
2022-10-13T18:38:50.764Z,39.33
2022-10-13T18:41:19.011Z,42.72
2022-10-13T18:43:45.705Z,39.25
2022-10-13T18:46:12.420Z,38.10
2022-10-13T18:48:40.540Z,41.97
2022-10-13T18:51:15.690Z,41.03
2022-10-13T18:53:44.715Z,35.40
2022-10-13T18:56:25.229Z,41.20
2022-10-13T18:58:58.440Z,36.90
2022-10-13T19:01:26.617Z,38.03
2022-10-13T19:03:54.309Z,39.45
2022-10-13T19:06:26.582Z,41.92
2022-10-13T19:09:04.678Z,43.17
2022-10-13T19:11:31.817Z,40.63
2022-10-13T19:13:59.714Z,42.13
2022-10-13T19:16:28.968Z,42.22
2022-10-13T19:18:55.901Z,48.08
2022-10-13T19:21:23.501Z,46.22
2022-10-13T19:23:50.535Z,46.70
2022-10-13T19:26:23.749Z,50.22
2022-10-13T19:28:54.967Z,43.58
2022-10-13T19:31:23.694Z,41.40
2022-10-13T19:33:50.879Z,43.75
2022-10-13T19:36:39.229Z,47.78
2022-10-13T19:39:28.266Z,54.83
2022-10-13T19:41:57.128Z,44.08
2022-10-13T19:44:24.866Z,49.70
2022-10-13T19:46:52.198Z,50.38
2022-10-13T19:49:21.237Z,43.45
2022-10-13T19:51:49.164Z,44.63
2022-10-13T19:54:17.255Z,45.70
2022-10-13T19:56:46.915Z,43.65
2022-10-13T19:59:14.272Z,43.80
2022-10-13T20:01:41.039Z,48.40
2022-10-13T20:04:08.545Z,43.35
2022-10-13T20:06:36.019Z,45.25
2022-10-13T20:09:02.987Z,42.38
2022-10-13T20:11:29.633Z,41.30
2022-10-13T20:13:56.438Z,42.17
2022-10-13T20:16:24.850Z,39.08
2022-10-13T20:18:56.510Z,39.50
2022-10-13T20:21:24.003Z,40.08
2022-10-13T20:23:50.728Z,43.60
2022-10-13T20:26:18.388Z,37.05
2022-10-13T20:28:46.232Z,38.95
2022-10-13T20:31:14.584Z,46.78
2022-10-13T20:33:41.823Z,39.50
2022-10-13T20:36:12.092Z,42.05
2022-10-13T20:38:38.877Z,37.08
2022-10-13T20:41:20.082Z,37.35
2022-10-13T20:43:47.654Z,35.38
2022-10-13T20:46:15.866Z,43.28
2022-10-13T20:49:13.793Z,43.40
2022-10-13T20:51:30.216Z,34.58
2022-10-13T20:53:57.321Z,39.53
2022-10-13T20:56:25.851Z,35.95
2022-10-13T20:58:52.834Z,37.72
2022-10-13T21:01:21.176Z,41.50
2022-10-13T21:03:54.722Z,39.00
2022-10-13T21:06:22.582Z,33.63
2022-10-13T21:08:49.225Z,28.92
2022-10-13T21:11:17.174Z,29.27
2022-10-13T21:13:44.364Z,28.70
2022-10-13T21:16:16.649Z,26.65
2022-10-13T21:18:50.553Z,22.85
2022-10-13T21:21:26.962Z,23.52
2022-10-13T21:23:58.227Z,25.98
2022-10-13T21:26:26.679Z,21.92
2022-10-13T21:28:53.269Z,18.83
2022-10-13T21:31:21.705Z,24.90
2022-10-13T21:33:48.815Z,25.38
2022-10-13T21:36:16.703Z,22.52
2022-10-13T21:38:44.814Z,22.25
2022-10-13T21:41:13.098Z,21.50
2022-10-13T21:43:40.389Z,20.70
2022-10-13T21:46:19.413Z,22.23
2022-10-13T21:48:47.277Z,22.23
2022-10-13T21:51:15.197Z,22.17
2022-10-13T21:53:42.130Z,20.50
2022-10-13T21:56:11.474Z,21.40
2022-10-13T21:58:38.626Z,24.30
2022-10-13T22:01:06.530Z,20.02
2022-10-13T22:03:34.646Z,21.55
2022-10-13T22:06:18.241Z,16.92
2022-10-13T22:08:47.435Z,15.43
2022-10-13T22:11:15.190Z,22.90
2022-10-13T22:13:42.027Z,19.92
2022-10-13T22:16:14.420Z,21.40
2022-10-13T22:18:41.358Z,19.73
2022-10-13T22:21:11.848Z,21.67
2022-10-13T22:23:38.457Z,22.27
2022-10-13T22:26:05.154Z,22.83
2022-10-13T22:28:36.842Z,19.35
2022-10-13T22:31:06.239Z,23.73
2022-10-13T22:33:35.206Z,21.77
2022-10-13T22:36:07.026Z,16.45
2022-10-13T22:38:33.565Z,21.48
2022-10-13T22:41:07.145Z,20.67
2022-10-13T22:43:34.669Z,19.23
2022-10-13T22:46:04.432Z,23.88
2022-10-13T22:48:34.740Z,21.27
2022-10-13T22:51:04.681Z,19.75
2022-10-13T22:53:32.000Z,19.77
2022-10-13T22:55:59.102Z,23.38
2022-10-13T22:58:25.809Z,30.45
2022-10-13T23:00:52.402Z,21.08
2022-10-13T23:03:19.557Z,24.20
2022-10-13T23:05:49.445Z,20.35
2022-10-13T23:08:16.054Z,23.70
2022-10-13T23:10:42.758Z,21.40
2022-10-13T23:13:09.256Z,22.55
2022-10-13T23:15:38.721Z,17.33
2022-10-13T23:18:05.648Z,20.15
2022-10-13T23:20:32.143Z,18.85
2022-10-13T23:22:58.625Z,17.55
2022-10-13T23:25:25.158Z,20.55
2022-10-13T23:27:51.640Z,18.15
2022-10-13T23:30:18.151Z,19.60
2022-10-13T23:32:44.654Z,18.55
2022-10-13T23:35:11.468Z,19.30
2022-10-13T23:37:37.953Z,20.75
2022-10-13T23:40:05.071Z,19.73
2022-10-13T23:42:31.574Z,26.15
2022-10-13T23:44:58.106Z,18.75
2022-10-13T23:47:24.629Z,17.10
2022-10-13T23:49:51.136Z,21.45
2022-10-13T23:52:19.491Z,20.00
2022-10-13T23:54:46.074Z,20.95
2022-10-13T23:57:12.585Z,22.45
2022-10-13T23:59:39.092Z,24.23
